Latest Coastal Weather Observations for Bellambi

IDN60701

Issued at 11:05 am EDT Saturday 25 October 2014 (issued every 10 minutes, with the page automatically refreshed every 10 minutes)

About coastal observations | Map of coastal stations | Coastal observations for NSW | Marine services | Other Formats
Station Details ID: 068228 Name: BELLAMBI AWS Lat: -34.37 Lon: 150.93 Height: 10.0 m
Data from the previous 72 hours. | See also: Recent months at Bellambi
Date/Time
EDT
Temp

°C
Wind Pressure Rain
since 9am
mm
Weather Cloud Vis
km
Sea
Height
m
Swell
Dir
 
Speed
knots
Gust
knots
hPa Trend Height
m
Period
s
Dir
25/11:00am 22.2 ENE 5 6 - - 0.0 - Partly cloudy - - - - -
25/10:30am 21.3 N 4 5 - - 0.0 - - - - - - -
25/10:00am 21.6 ENE 4 5 - - 0.0 - - - - - - -
25/09:30am 20.9 NNE 2 4 - - 0.0 - - - - - - -
25/09:00am 19.8 N 2 5 - - 0.4 - - - - - - -
25/08:30am 19.3 CALM 0 3 - - 0.4 - - - - - - -
25/08:00am 19.5 CALM 0 0 - - 0.4 - - - - - - -
25/07:30am 18.2 NNW 3 4 - - 0.4 - - - - - - -
25/07:00am 18.2 CALM 0 1 - - 0.4 - - - - - - -
25/06:30am 17.6 W 5 5 - - 0.4 - - - - - - -
25/06:00am 17.7 WSW 6 8 - - 0.4 - - - - - - -
25/05:30am 18.0 W 3 4 - - 0.4 - Partly cloudy - - - - -
25/05:28am 18.1 W 3 4 - - 0.4 - Partly cloudy - - - - -
25/05:00am 18.4 CALM 0 0 - - 0.4 - Partly cloudy - - - - -
25/04:30am 18.8 CALM 0 0 - - 0.4 - Partly cloudy - - - - -
25/04:00am 18.9 N 2 4 - - 0.4 - Cloudy - - - - -
25/03:30am 19.0 CALM 0 0 - - 0.4 - Cloudy - - - - -
25/03:00am 19.0 CALM 0 0 - - 0.4 - Cloudy - - - - -
25/02:30am 19.1 CALM 0 0 - - 0.4 - Cloudy - - - - -
25/02:00am 19.4 CALM 0 0 - - 0.4 - Cloudy - - - - -
25/01:30am 19.6 CALM 0 3 - - 0.4 - Partly cloudy - - - - -
25/01:00am 19.5 N 1 5 - - 0.4 - Cloudy - - - - -
25/12:30am 19.3 N 5 5 - - 0.4 - Partly cloudy - - - - -
25/12:21am 19.2 N 4 5 - - 0.4 - Partly cloudy - - - - -
25/12:00am 19.2 N 3 6 - - 0.4 - - - - - - -
 
Date/Time
EDT
Temp

°C
Wind Pressure Rain
since 9am
mm
Weather Cloud Vis
km
Sea
Height
m
Swell
Dir
 
Speed
knots
Gust
knots
hPa Trend Height
m
Period
s
Dir
24/11:30pm 19.3 ENE 5 8 - - 0.4 - - - - - - -
24/11:00pm 19.4 S 7 9 - - 0.4 - - - - - - -
24/10:30pm 19.8 SSW 15 22 - - 0.4 - - - - - - -
24/10:18pm 19.8 SSW 15 21 - - 0.4 - - - - - - -
24/10:00pm 19.3 S 5 8 - - 0.4 - - - - - - -
24/09:30pm 19.5 E 8 11 - - 0.4 - - - - - - -
24/09:00pm 19.5 NE 5 7 - - 0.4 - Mostly clear - - - - -
24/08:30pm 19.6 N 8 10 - - 0.4 - - - - - - -
24/08:00pm 19.6 N 8 11 - - 0.4 - - - - - - -
24/07:30pm 19.6 NNE 11 14 - - 0.4 - - - - - - -
24/07:00pm 19.6 N 7 9 - - 0.4 - - - - - - -
24/06:30pm 19.7 NE 14 17 - - 0.4 - - - - - - -
24/06:00pm 20.0 NE 14 17 - - 0.4 - - - - - - -
24/05:30pm 20.3 NNE 16 19 - - 0.4 - - - - - - -
24/05:00pm 20.1 NNE 15 19 - - 0.4 - - - - - - -
24/04:30pm 20.3 NNE 14 19 - - 0.4 - - - - - - -
24/04:00pm 20.4 NE 21 24 - - 0.4 - - - - - - -
24/03:30pm 20.6 NE 20 24 - - 0.4 - - - - - - -
24/03:00pm 20.7 NNE 17 21 - - 0.4 - - - - - - -
24/02:51pm 20.9 NNE 15 21 - - 0.4 - Partly cloudy - - - - -
24/02:30pm 20.4 N 9 12 - - 0.4 - Cloudy - - - - -
24/02:00pm 21.2 NNE 11 15 - - 0.4 - Partly cloudy - - - - -
24/01:53pm 21.3 NNE 10 13 - - 0.4 - Partly cloudy - - - - -
24/01:30pm 21.3 NNE 10 13 - - 0.4 - - - - - - -
24/01:00pm 21.9 NE 11 14 - - 0.4 - - - - - - -
24/12:30pm 21.4 NE 13 15 - - 0.4 - - - - - - -
24/12:00pm 21.1 ENE 11 13 - - 0.4 - - - - - - -
24/11:30am 21.9 NE 7 9 - - 0.4 - - - - - - -
24/11:00am 21.2 NE 5 7 - - 0.4 - - - - - - -
24/10:30am 19.7 NNE 11 13 - - 0.4 - Partly cloudy - - - - -
24/10:00am 20.3 N 12 17 - - 0.2 - Partly cloudy - - - - -
24/09:30am 20.2 NNW 9 14 - - 0.0 - Partly cloudy - - - - -
24/09:00am 20.4 NW 14 18 - - 0.0 - Partly cloudy - - - - -
24/08:30am 20.2 N 7 9 - - 0.0 - - - - - - -
24/08:00am 19.8 NW 13 15 - - 0.0 - - - - - - -
24/07:30am 19.1 N 10 13 - - 0.0 - - - - - - -
24/07:00am 18.7 N 9 11 - - 0.0 - - - - - - -
24/06:30am 18.2 NNW 11 13 - - 0.0 - Partly cloudy - - - - -
24/06:00am 18.3 N 5 7 - - 0.0 - Mostly clear - - - - -
24/05:30am 17.8 SW 6 8 - - 0.0 - - - - - - -
24/05:00am 18.3 WNW 2 5 - - 0.0 - - - - - - -
24/04:30am 18.8 SSE 3 7 - - 0.0 - - - - - - -
24/04:00am 19.4 S 6 8 - - 0.0 - Partly cloudy - - - - -
24/03:30am 19.0 NW 8 12 - - 0.0 - - - - - - -
24/03:00am 18.7 N 2 4 - - 0.0 - - - - - - -
24/02:30am 18.5 NW 6 7 - - 0.0 - - - - - - -
24/02:00am 18.8 N 11 13 - - 0.0 - Partly cloudy - - - - -
24/01:30am 18.8 NNE 7 10 - - 0.0 - Partly cloudy - - - - -
24/01:20am 18.7 WSW 3 6 - - 0.0 - Partly cloudy - - - - -
24/01:00am 18.6 SW 5 7 - - 0.0 - Partly cloudy - - - - -
24/12:30am 18.7 SSW 8 11 - - 0.0 - Partly cloudy - - - - -
24/12:15am 18.7 SSW 8 11 - - 0.0 - Partly cloudy - - - - -
24/12:00am 18.4 SW 5 7 - - 0.0 - Partly cloudy - - - - -
 
Date/Time
EDT
Temp

°C
Wind Pressure Rain
since 9am
mm
Weather Cloud Vis
km
Sea
Height
m
Swell
Dir
 
Speed
knots
Gust
knots
hPa Trend Height
m
Period
s
Dir
23/11:30pm 18.3 SW 7 8 - - 0.0 - Partly cloudy - - - - -
23/11:00pm 18.5 WSW 4 6 - - 0.0 - - - - - - -
23/10:30pm 18.6 CALM 0 0 - - 0.0 - - - - - - -
23/10:00pm 18.2 SW 5 7 - - 0.0 - - - - - - -
23/09:30pm 18.5 CALM 0 0 - - 0.0 - - - - - - -
23/09:00pm 18.5 CALM 0 0 - - 0.0 - - - - - - -
23/08:30pm 18.9 CALM 0 0 - - 0.0 - - - - - - -
23/08:00pm 19.0 SE 1 4 - - 0.0 - - - - - - -
23/07:30pm 19.3 SE 1 4 - - 0.0 - - - - - - -
23/07:00pm 19.9 CALM 0 0 - - 0.0 - - - - - - -
23/06:30pm 20.2 CALM 0 0 - - 0.0 - - - - - - -
23/06:00pm 20.5 CALM 0 0 - - 0.0 - - - - - - -
23/05:30pm 20.6 ESE 1 3 - - 0.0 - - - - - - -
23/05:00pm 21.1 ESE 2 3 - - 0.0 - - - - - - -
23/04:30pm 21.2 ESE 3 3 - - 0.0 - - - - - - -
23/04:00pm 21.6 ESE 5 6 - - 0.0 - - - - - - -
23/03:30pm 22.0 SSE 5 6 - - 0.0 - - - - - - -
23/03:00pm 22.8 S 4 5 - - 0.0 - - - - - - -
23/02:30pm 22.1 SSE 1 5 - - 0.0 - - - - - - -
23/02:00pm 21.6 SSE 4 5 - - 0.0 - - - - - - -
23/01:30pm 20.7 ESE 4 5 - - 0.0 - - - - - - -
23/01:00pm 21.2 SSE 4 5 - - 0.0 - - - - - - -
23/12:30pm 20.9 S 5 7 - - 0.0 - - - - - - -
23/12:00pm 20.6 SSE 7 9 - - 0.0 - - - - - - -
23/11:30am 20.1 SSE 6 8 - - 0.0 - - - - - - -
23/11:00am 20.3 SE 6 6 - - 0.0 - - - - - - -
23/10:30am 20.7 E 1 3 - - 0.0 - - - - - - -
23/10:00am 20.5 S 2 5 - - 0.0 - - - - - - -
23/09:30am 19.9 SSW 4 5 - - 0.0 - - - - - - -
23/09:00am 18.8 S 2 4 - - 0.0 - - - - - - -
23/08:30am 18.6 S 4 6 - - 0.0 - - - - - - -
23/08:00am 18.6 S 3 4 - - 0.0 - - - - - - -
23/07:30am 18.8 CALM 0 0 - - 0.0 - - - - - - -
23/07:00am 16.9 SW 4 5 - - 0.0 - - - - - - -
23/06:30am 16.8 CALM 0 2 - - 0.0 - - - - - - -
23/06:00am 17.3 N 5 6 - - 0.0 - - - - - - -
23/05:30am 17.1 NNE 6 7 - - 0.0 - - - - - - -
23/05:00am 16.7 NNE 4 5 - - 0.0 - - - - - - -
23/04:30am 16.8 N 4 6 - - 0.0 - - - - - - -
23/04:00am 16.9 NNE 7 9 - - 0.0 - - - - - - -
23/03:30am 16.6 NW 4 6 - - 0.0 - - - - - - -
23/03:00am 16.5 WNW 3 5 - - 0.0 - - - - - - -
23/02:30am 16.3 NNW 2 4 - - 0.0 - - - - - - -
23/02:00am 15.6 NNW 1 5 - - 0.0 - - - - - - -
23/01:30am 15.2 NNW 4 6 - - 0.0 - - - - - - -
23/01:00am 15.1 WNW 3 6 - - 0.0 - - - - - - -
23/12:30am 15.6 NW 5 7 - - 0.0 - - - - - - -
23/12:00am 16.4 NW 4 6 - - 0.0 - - - - - - -
 
Date/Time
EDT
Temp

°C
Wind Pressure Rain
since 9am
mm
Weather Cloud Vis
km
Sea
Height
m
Swell
Dir
 
Speed
knots
Gust
knots
hPa Trend Height
m
Period
s
Dir
22/11:30pm 17.5 N 8 10 - - 0.0 - - - - - - -
22/11:00pm 17.0 N 6 7 - - 0.0 - - - - - - -
22/10:30pm 16.6 NW 4 5 - - 0.0 - - - - - - -
22/10:00pm 17.0 NNW 5 7 - - 0.0 - - - - - - -
22/09:30pm 16.9 NW 5 6 - - 0.0 - - - - - - -
22/09:00pm 17.9 N 8 10 - - 0.0 - - - - - - -
22/08:30pm 17.9 NNE 10 13 - - 0.0 - - - - - - -
22/08:00pm 17.9 NNE 13 16 - - 0.0 - - - - - - -
22/07:30pm 18.0 NNE 16 19 - - 0.0 - - - - - - -
22/07:00pm 18.1 NNE 19 22 - - 0.0 - - - - - - -
22/06:30pm 18.2 NE 21 25 - - 0.0 - - - - - - -
22/06:00pm 18.4 NE 22 26 - - 0.0 - - - - - - -
22/05:30pm 18.6 NE 22 27 - - 0.0 - - - - - - -
22/05:00pm 18.8 NE 22 26 - - 0.0 - - - - - - -
22/04:30pm 19.0 NE 23 27 - - 0.0 - - - - - - -
22/04:00pm 18.9 NE 24 28 - - 0.0 - - - - - - -
22/03:30pm 19.1 NE 23 28 - - 0.0 - - - - - - -
22/03:00pm 19.1 NE 24 28 - - 0.0 - - - - - - -
22/02:30pm 19.1 NE 23 27 - - 0.0 - - - - - - -
22/02:00pm 19.3 NE 22 26 - - 0.0 - - - - - - -
22/01:30pm 19.2 NE 23 27 - - 0.0 - - - - - - -
22/01:00pm 19.4 NE 20 23 - - 0.0 - - - - - - -
22/12:30pm 19.8 NE 15 20 - - 0.0 - - - - - - -
22/12:00pm 19.9 NNE 14 17 - - 0.0 - - - - - - -
22/11:30am 19.9 NNE 13 16 - - 0.0 - Partly cloudy - - - - -

Other Formats:

Comma delimited format used in spreadsheet applications
http://www.bom.gov.au/fwo/IDN60701/IDN60701.94749.axf

JavaScript Object Notation format (JSON) in row-major order
http://www.bom.gov.au/fwo/IDN60701/IDN60701.94749.json